createdAt,value
2017-06-16T11:10:19.312Z,22.2
2017-06-16T11:12:35.490Z,22.3
2017-06-16T11:13:43.572Z,22.2
2017-06-16T11:14:51.662Z,22.2
2017-06-16T11:15:59.745Z,22.3
2017-06-16T11:17:07.833Z,22.2
2017-06-16T11:18:15.921Z,22.3
2017-06-16T11:19:24.008Z,22.3
2017-06-16T11:20:32.097Z,22.3
2017-06-16T11:21:40.185Z,22.3
2017-06-16T11:22:48.275Z,22.3
2017-06-16T11:23:56.360Z,22.3
2017-06-16T11:25:04.446Z,22.3
2017-06-16T11:26:12.531Z,22.3
2017-06-16T11:27:20.621Z,22.2
2017-06-16T11:28:28.711Z,22.3
2017-06-16T11:29:36.813Z,22.3
2017-06-16T11:30:44.885Z,22.3
2017-06-16T11:31:52.973Z,22.2
2017-06-16T11:33:01.065Z,22.2
2017-06-16T11:34:09.158Z,22.2
2017-06-16T11:35:17.244Z,22.3
2017-06-16T11:36:25.333Z,22.3
2017-06-16T11:37:33.431Z,22.4
2017-06-16T11:38:41.513Z,22.4
2017-06-16T11:39:49.599Z,22.4
2017-06-16T11:40:57.683Z,22.4
2017-06-16T11:42:05.781Z,22.4
2017-06-16T11:43:13.873Z,22.4
2017-06-16T11:44:21.957Z,22.4
2017-06-16T11:45:30.047Z,22.4
2017-06-16T11:46:38.217Z,22.4
2017-06-16T11:47:46.222Z,22.3
2017-06-16T11:48:54.309Z,22.3
2017-06-16T11:50:02.398Z,22.4
2017-06-16T11:51:10.485Z,22.4
2017-06-16T11:52:18.575Z,22.4
2017-06-16T11:53:26.660Z,22.4
2017-06-16T11:54:34.750Z,22.4
2017-06-16T11:55:42.834Z,22.4
2017-06-16T11:56:50.933Z,22.4
2017-06-16T11:57:59.011Z,22.4
2017-06-16T11:59:07.099Z,22.4
2017-06-16T12:00:15.186Z,22.4
2017-06-16T12:01:23.285Z,22.5
2017-06-16T12:02:31.369Z,22.5
2017-06-16T12:03:39.505Z,22.5
2017-06-16T12:04:47.547Z,22.5
2017-06-16T12:05:55.635Z,22.5
2017-06-16T12:07:03.722Z,22.5
2017-06-16T12:08:11.809Z,22.4
2017-06-16T12:09:19.895Z,22.5
2017-06-16T12:10:27.984Z,22.5
2017-06-16T12:11:36.073Z,22.5
2017-06-16T12:12:44.161Z,22.4
2017-06-16T12:13:52.249Z,22.4
2017-06-16T12:15:00.337Z,22.5
2017-06-16T12:16:08.425Z,22.5
2017-06-16T12:17:16.514Z,22.5
2017-06-16T12:18:24.600Z,22.5
2017-06-16T12:19:32.686Z,22.5
2017-06-16T12:20:40.785Z,22.5
2017-06-16T12:21:48.865Z,22.5
2017-06-16T12:22:56.952Z,22.5
2017-06-16T12:24:05.039Z,22.5
2017-06-16T12:25:13.133Z,22.5
2017-06-16T12:26:21.219Z,22.5
2017-06-16T12:27:29.306Z,22.5
2017-06-16T12:28:37.393Z,22.6
2017-06-16T12:29:45.491Z,22.5
2017-06-16T12:30:53.663Z,22.6
2017-06-16T12:32:02.145Z,22.6
2017-06-16T12:33:09.744Z,22.5
2017-06-16T12:34:17.846Z,22.5
2017-06-16T12:35:25.924Z,22.5
2017-06-16T12:36:34.015Z,22.6
2017-06-16T12:37:42.313Z,22.5
2017-06-16T12:38:50.217Z,22.5
2017-06-16T12:39:58.275Z,22.5
2017-06-16T12:41:06.543Z,22.5
2017-06-16T12:42:14.461Z,22.6
2017-06-16T12:43:22.536Z,22.6
2017-06-16T12:44:30.624Z,22.6
2017-06-16T12:45:38.844Z,22.6
2017-06-16T12:46:46.803Z,22.6
2017-06-16T12:47:54.888Z,22.6
2017-06-16T12:49:02.973Z,22.6
2017-06-16T12:50:11.062Z,22.5
2017-06-16T12:51:19.176Z,22.6
2017-06-16T12:52:27.237Z,22.6
2017-06-16T12:53:35.327Z,22.6
2017-06-16T12:54:43.440Z,22.6
2017-06-16T12:55:51.501Z,22.5
2017-06-16T12:56:59.590Z,22.6
2017-06-16T12:58:07.687Z,22.6
2017-06-16T12:59:15.762Z,22.6
2017-06-16T13:00:23.850Z,22.6
2017-06-16T13:01:31.943Z,22.6
2017-06-16T13:02:40.028Z,22.6
2017-06-16T13:03:48.116Z,22.5
2017-06-16T13:04:56.205Z,22.5
2017-06-16T13:06:04.290Z,22.6
2017-06-16T13:07:12.378Z,22.5
2017-06-16T13:08:20.473Z,22.6
2017-06-16T13:09:28.554Z,22.6
2017-06-16T13:10:36.646Z,22.6
2017-06-16T13:11:44.730Z,22.6
2017-06-16T13:12:52.819Z,22.6
2017-06-16T13:14:00.907Z,22.6
2017-06-16T13:15:08.997Z,22.5
2017-06-16T13:16:17.090Z,22.6
2017-06-16T13:17:25.174Z,22.6
2017-06-16T13:18:33.257Z,22.6
2017-06-16T13:19:41.345Z,22.6
2017-06-16T13:20:49.432Z,22.6
2017-06-16T13:21:57.547Z,22.5
2017-06-16T13:23:05.608Z,22.6
2017-06-16T13:24:13.707Z,22.6
2017-06-16T13:25:21.786Z,22.6
2017-06-16T13:26:29.872Z,22.6
2017-06-16T13:27:37.960Z,22.6
2017-06-16T13:28:46.047Z,22.6
2017-06-16T13:29:54.135Z,22.6
2017-06-16T13:31:02.229Z,22.6
2017-06-16T13:32:10.313Z,22.6
2017-06-16T13:33:18.398Z,22.6
2017-06-16T13:34:26.487Z,22.6
2017-06-16T13:35:34.574Z,22.6
2017-06-16T13:36:42.661Z,22.6
2017-06-16T13:37:50.748Z,22.6
2017-06-16T13:38:58.837Z,22.6
2017-06-16T13:40:06.925Z,22.6
2017-06-16T13:41:15.013Z,22.6
2017-06-16T13:42:23.129Z,22.6
2017-06-16T13:43:31.190Z,22.6
2017-06-16T13:44:39.304Z,22.6
2017-06-16T13:45:47.376Z,22.6
2017-06-16T13:46:55.464Z,22.6
2017-06-16T13:48:03.554Z,22.6
2017-06-16T13:49:11.639Z,22.6
2017-06-16T13:50:19.771Z,22.6
2017-06-16T13:51:27.822Z,22.6
2017-06-16T13:52:35.906Z,22.6
2017-06-16T13:53:43.995Z,22.6
2017-06-16T13:54:52.089Z,22.6
2017-06-16T13:56:00.168Z,22.6
2017-06-16T13:57:08.257Z,22.6
2017-06-16T13:58:16.345Z,22.7
2017-06-16T13:59:24.436Z,22.6
2017-06-16T14:00:32.522Z,22.6
2017-06-16T14:01:40.610Z,22.6
2017-06-16T14:02:48.698Z,22.6
2017-06-16T14:03:56.783Z,22.6
2017-06-16T14:05:04.872Z,22.6
2017-06-16T14:06:12.960Z,22.7
2017-06-16T14:07:21.047Z,22.7
2017-06-16T14:08:29.138Z,22.6
2017-06-16T14:09:37.235Z,22.6
2017-06-16T14:10:45.322Z,22.7
2017-06-16T14:11:53.407Z,22.6
2017-06-16T14:13:01.496Z,22.7
2017-06-16T14:14:09.583Z,22.6
2017-06-16T14:15:17.672Z,22.6
2017-06-16T14:16:25.761Z,22.6
2017-06-16T14:17:33.851Z,22.6
2017-06-16T14:18:41.937Z,22.6
2017-06-16T14:19:50.026Z,22.6
2017-06-16T14:20:58.120Z,22.6
2017-06-16T14:22:06.200Z,22.6
2017-06-16T14:23:14.287Z,22.6
2017-06-16T14:24:22.375Z,22.6
2017-06-16T14:25:30.461Z,22.7
2017-06-16T14:26:38.550Z,22.6
2017-06-16T14:27:46.641Z,22.7
2017-06-16T14:28:54.730Z,22.6
2017-06-16T14:30:02.817Z,22.6
2017-06-16T14:31:10.905Z,22.6
2017-06-16T14:32:18.990Z,22.6
2017-06-16T14:33:27.077Z,22.6
2017-06-16T14:34:35.165Z,22.6
2017-06-16T14:35:43.257Z,22.7
2017-06-16T14:36:51.344Z,22.7
2017-06-16T14:37:59.432Z,22.7
2017-06-16T14:39:07.517Z,22.6
2017-06-16T14:40:15.609Z,22.6
2017-06-16T14:41:23.696Z,22.7
2017-06-16T14:42:31.785Z,22.7
2017-06-16T14:43:39.874Z,22.6
2017-06-16T14:44:47.976Z,22.6
2017-06-16T14:45:56.049Z,22.7
2017-06-16T14:47:04.136Z,22.7
2017-06-16T14:48:12.223Z,22.7
2017-06-16T14:49:20.310Z,22.7
2017-06-16T14:50:28.400Z,22.6
2017-06-16T14:51:36.486Z,22.8
2017-06-16T14:52:44.574Z,22.6
2017-06-16T14:53:52.661Z,22.6
2017-06-16T14:55:00.749Z,22.6
2017-06-16T14:56:08.839Z,22.6
2017-06-16T14:57:16.926Z,22.6
2017-06-16T14:58:25.015Z,22.6
2017-06-16T14:59:33.106Z,22.6
2017-06-16T15:00:41.189Z,22.7
2017-06-16T15:01:49.277Z,22.6
2017-06-16T15:02:57.372Z,22.7
2017-06-16T15:04:05.452Z,22.7
2017-06-16T15:05:13.540Z,22.6
2017-06-16T15:06:21.636Z,22.7
2017-06-16T15:07:29.736Z,22.8
2017-06-16T15:08:37.820Z,22.6
2017-06-16T15:09:45.908Z,22.6
2017-06-16T15:10:53.995Z,22.6
2017-06-16T15:12:02.083Z,22.6
2017-06-16T15:13:10.171Z,22.6
2017-06-16T15:14:18.260Z,22.6
2017-06-16T15:15:26.346Z,22.8
2017-06-16T15:16:34.436Z,22.7
2017-06-16T15:17:42.525Z,22.7
2017-06-16T15:18:50.614Z,22.7
2017-06-16T15:19:58.703Z,22.6
2017-06-16T15:21:06.791Z,22.7
2017-06-16T15:22:14.876Z,22.7
2017-06-16T15:23:22.967Z,22.6
2017-06-16T15:24:31.049Z,22.6
2017-06-16T15:25:39.139Z,22.6
2017-06-16T15:26:47.226Z,22.6
2017-06-16T15:27:55.312Z,22.7
2017-06-16T15:29:03.400Z,22.7
2017-06-16T15:30:11.490Z,22.6
2017-06-16T15:31:19.577Z,22.6
2017-06-16T15:32:27.665Z,22.7
2017-06-16T15:33:35.753Z,22.6
2017-06-16T15:34:43.840Z,22.7
2017-06-16T15:35:51.930Z,22.7
2017-06-16T15:37:00.024Z,22.6
2017-06-16T15:38:08.112Z,22.7
2017-06-16T15:39:16.199Z,22.6
2017-06-16T15:40:24.290Z,22.6
2017-06-16T15:41:32.381Z,22.6
2017-06-16T15:42:40.463Z,22.7
2017-06-16T15:43:48.554Z,22.6
2017-06-16T15:44:56.639Z,22.6
2017-06-16T15:46:04.729Z,22.6
2017-06-16T15:47:12.814Z,22.6
2017-06-16T15:48:20.900Z,22.6
2017-06-16T15:49:28.991Z,22.6
2017-06-16T15:50:37.078Z,22.6
2017-06-16T15:51:45.166Z,22.6
2017-06-16T15:52:53.255Z,22.7
2017-06-16T15:54:01.340Z,22.6
2017-06-16T15:55:09.429Z,22.7
2017-06-16T15:56:17.521Z,22.7
2017-06-16T15:57:25.602Z,22.6
2017-06-16T15:58:33.689Z,22.6
2017-06-16T15:59:41.777Z,22.6
2017-06-16T16:00:49.866Z,22.7
2017-06-16T16:01:57.953Z,22.7
2017-06-16T16:03:06.041Z,22.7
2017-06-16T16:04:14.129Z,22.6
2017-06-16T16:05:22.215Z,22.7
2017-06-16T16:06:30.305Z,22.6
2017-06-16T16:07:38.391Z,22.6
2017-06-16T16:08:46.479Z,22.6
2017-06-16T16:09:54.565Z,22.7
2017-06-16T16:11:02.655Z,22.6
2017-06-16T16:12:10.743Z,22.6
2017-06-16T16:13:18.830Z,22.6
2017-06-16T16:14:26.917Z,22.7
2017-06-16T16:15:35.004Z,22.6
2017-06-16T16:16:43.091Z,22.6
2017-06-16T16:17:51.182Z,22.7
2017-06-16T16:18:59.268Z,22.6
2017-06-16T16:20:07.356Z,22.6
2017-06-16T16:21:15.449Z,22.6
2017-06-16T16:22:23.532Z,22.6
2017-06-16T16:23:31.621Z,22.6
2017-06-16T16:24:39.706Z,22.7
2017-06-16T16:25:47.794Z,22.7
2017-06-16T16:26:55.882Z,22.7
2017-06-16T16:28:03.968Z,22.6
2017-06-16T16:29:12.057Z,22.6
2017-06-16T16:30:20.143Z,22.6
2017-06-16T16:31:28.233Z,22.7
2017-06-16T16:32:36.318Z,22.7
2017-06-16T16:33:44.407Z,22.7
2017-06-16T16:34:52.494Z,22.6
2017-06-16T16:36:00.582Z,22.6
2017-06-16T16:37:08.668Z,22.6
2017-06-16T16:38:16.762Z,22.6
2017-06-16T16:39:24.844Z,22.6
2017-06-16T16:40:32.991Z,22.7
2017-06-16T16:41:41.022Z,22.6
2017-06-16T16:42:49.110Z,22.7
2017-06-16T16:43:57.193Z,22.6
2017-06-16T16:45:05.282Z,22.6
2017-06-16T16:46:13.369Z,22.6
2017-06-16T16:47:21.459Z,22.6
2017-06-16T16:48:29.546Z,22.6
2017-06-16T16:49:37.633Z,22.7
2017-06-16T16:50:45.726Z,22.6
2017-06-16T16:51:53.808Z,22.6
2017-06-16T16:53:01.905Z,22.6
2017-06-16T16:54:09.993Z,22.6
2017-06-16T16:55:18.079Z,22.6
2017-06-16T16:56:26.167Z,22.6
2017-06-16T16:57:34.353Z,22.6
2017-06-16T16:58:42.341Z,22.6
2017-06-16T16:59:50.442Z,22.6
2017-06-16T17:00:58.528Z,22.6
2017-06-16T17:02:06.611Z,22.6
2017-06-16T17:03:14.698Z,22.6
2017-06-16T17:04:22.786Z,22.6
2017-06-16T17:05:30.873Z,22.6
2017-06-16T17:06:38.964Z,22.6
2017-06-16T17:07:47.049Z,22.6
2017-06-16T17:08:55.137Z,22.6
2017-06-16T17:10:03.226Z,22.6
2017-06-16T17:11:11.312Z,22.7
2017-06-16T17:12:19.399Z,22.6
2017-06-16T17:13:27.527Z,22.6
2017-06-16T17:14:35.592Z,22.6
2017-06-16T17:15:43.663Z,22.6
2017-06-16T17:16:51.751Z,22.6
2017-06-16T17:17:59.841Z,22.6
2017-06-16T17:19:07.928Z,22.6
2017-06-16T17:20:16.014Z,22.6
2017-06-16T17:21:24.102Z,22.6
2017-06-16T17:22:32.188Z,22.6
2017-06-16T17:23:40.278Z,22.6
2017-06-16T17:24:48.364Z,22.6
2017-06-16T17:25:56.453Z,22.6
2017-06-16T17:27:04.540Z,22.6
2017-06-16T17:28:12.628Z,22.6
2017-06-16T17:29:20.714Z,22.6
2017-06-16T17:30:28.800Z,22.6
2017-06-16T17:31:36.921Z,22.6
2017-06-16T17:32:44.977Z,22.6
2017-06-16T17:33:53.062Z,22.6
2017-06-16T17:35:01.152Z,22.6
2017-06-16T17:36:09.237Z,22.6
2017-06-16T17:37:17.331Z,22.6
2017-06-16T17:38:25.411Z,22.6
2017-06-16T17:39:33.499Z,22.6
2017-06-16T17:40:41.587Z,22.5
2017-06-16T17:41:49.673Z,22.5
2017-06-16T17:42:57.760Z,22.6
2017-06-16T17:44:05.845Z,22.6
2017-06-16T17:45:13.934Z,22.5
2017-06-16T17:46:22.023Z,22.6
2017-06-16T17:47:30.110Z,22.6
2017-06-16T17:48:38.206Z,22.5
2017-06-16T17:49:46.286Z,22.6
2017-06-16T17:50:54.371Z,22.5
2017-06-16T17:52:02.460Z,22.5
2017-06-16T17:53:10.546Z,22.6
2017-06-16T17:54:18.636Z,22.5
2017-06-16T17:55:26.724Z,22.6
2017-06-16T17:56:34.812Z,22.5
2017-06-16T17:57:42.898Z,22.6
2017-06-16T17:58:50.985Z,22.6
2017-06-16T17:59:59.071Z,22.5
2017-06-16T18:01:07.161Z,22.5
2017-06-16T18:02:15.248Z,22.5
2017-06-16T18:03:23.333Z,22.5
2017-06-16T18:04:31.423Z,22.5
2017-06-16T18:05:39.508Z,22.5
2017-06-16T18:06:47.597Z,22.5
2017-06-16T18:07:55.683Z,22.5
2017-06-16T18:09:03.774Z,22.4
2017-06-16T18:10:11.861Z,22.4
2017-06-16T18:11:19.947Z,22.5
2017-06-16T18:12:28.044Z,22.5
2017-06-16T18:13:36.131Z,22.5
2017-06-16T18:14:44.219Z,22.5
2017-06-16T18:15:52.306Z,22.5
2017-06-16T18:17:00.401Z,22.5
2017-06-16T18:18:08.495Z,22.4
2017-06-16T18:19:16.580Z,22.6
2017-06-16T18:20:24.664Z,22.5
2017-06-16T18:21:32.752Z,22.5
2017-06-16T18:22:40.852Z,22.4
2017-06-16T18:23:48.926Z,22.4
2017-06-16T18:24:57.013Z,22.4
2017-06-16T18:26:05.101Z,22.4
2017-06-16T18:27:13.189Z,22.4
2017-06-16T18:28:21.275Z,22.4
2017-06-16T18:29:29.363Z,22.5
2017-06-16T18:30:37.449Z,22.4
2017-06-16T18:31:45.538Z,22.3
2017-06-16T18:32:53.624Z,22.4
2017-06-16T18:34:01.710Z,22.5
2017-06-16T18:35:09.799Z,22.4
2017-06-16T18:36:17.884Z,22.3
2017-06-16T18:37:25.970Z,22.4
2017-06-16T18:38:34.071Z,22.3
2017-06-16T18:39:42.161Z,22.4
2017-06-16T18:40:50.242Z,22.4
2017-06-16T18:41:58.329Z,22.4
2017-06-16T18:43:06.448Z,22.4
2017-06-16T18:44:14.502Z,22.4
2017-06-16T18:45:22.591Z,22.4
2017-06-16T18:46:30.677Z,22.2
2017-06-16T18:47:38.766Z,22.2
2017-06-16T18:48:46.858Z,22.2
2017-06-16T18:49:54.942Z,22.3
2017-06-16T18:51:03.038Z,22.2
2017-06-16T18:52:11.123Z,22.3
2017-06-16T18:53:19.243Z,22.2
2017-06-16T18:54:27.314Z,22.3
2017-06-16T18:55:35.401Z,22.4
2017-06-16T18:56:43.490Z,22.3
2017-06-16T18:57:51.575Z,22.2
2017-06-16T18:58:59.664Z,22.3
2017-06-16T19:00:07.760Z,22.3
2017-06-16T19:01:15.837Z,22.3
2017-06-16T19:02:24.196Z,22.3
2017-06-16T19:03:32.011Z,22.2
2017-06-16T19:04:40.123Z,22.3
2017-06-16T19:05:48.185Z,22.2
2017-06-16T19:06:56.271Z,22.2
2017-06-16T19:08:04.358Z,22.3
2017-06-16T19:09:12.445Z,22.3
2017-06-16T19:10:20.532Z,22.2
2017-06-16T19:11:28.618Z,22.2
2017-06-16T19:12:36.706Z,22.2
2017-06-16T19:13:44.793Z,22.1
2017-06-16T19:14:52.884Z,22.2
2017-06-16T19:16:00.968Z,22.1
2017-06-16T19:17:09.055Z,22.2
2017-06-16T19:18:17.195Z,22.2
2017-06-16T19:19:25.227Z,22.2
2017-06-16T19:20:33.317Z,22.1
2017-06-16T19:21:41.403Z,22.2
2017-06-16T19:22:49.490Z,22.1
2017-06-16T19:23:57.582Z,22.2
2017-06-16T19:25:05.688Z,22.2
2017-06-16T19:26:13.754Z,22.1
2017-06-16T19:27:21.860Z,22.2
2017-06-16T19:28:30.057Z,22.2
2017-06-16T19:29:38.011Z,22.1
2017-06-16T19:30:46.098Z,22.1
2017-06-16T19:31:54.189Z,22.0
2017-06-16T19:33:02.274Z,22.1
2017-06-16T19:34:10.364Z,22.1
2017-06-16T19:35:18.448Z,22.0
2017-06-16T19:36:26.539Z,22.0
2017-06-16T19:37:34.634Z,22.0
2017-06-16T19:38:42.714Z,21.9
2017-06-16T19:39:50.801Z,21.9
2017-06-16T19:40:58.887Z,21.8
2017-06-16T19:42:06.981Z,21.8
2017-06-16T19:43:15.060Z,21.8
2017-06-16T19:44:23.164Z,21.9
2017-06-16T19:45:31.234Z,21.7
2017-06-16T19:46:39.325Z,21.7
2017-06-16T19:47:47.406Z,21.7
2017-06-16T19:48:55.494Z,21.7
2017-06-16T19:50:03.579Z,21.6
2017-06-16T19:51:11.666Z,21.6
2017-06-16T19:52:19.765Z,21.6
2017-06-16T19:53:27.847Z,21.6
2017-06-16T19:54:35.927Z,21.6
2017-06-16T19:55:44.009Z,21.6
2017-06-16T19:56:52.095Z,21.6
2017-06-16T19:58:00.185Z,21.6
2017-06-16T19:59:08.271Z,21.6
2017-06-16T20:00:16.362Z,21.6
2017-06-16T20:01:24.476Z,21.5
2017-06-16T20:02:32.552Z,21.5
2017-06-16T20:03:40.619Z,21.5
2017-06-16T20:04:48.710Z,21.5
2017-06-16T20:05:56.793Z,21.4
2017-06-16T20:07:04.881Z,21.5
2017-06-16T20:08:12.966Z,21.5
2017-06-16T20:09:21.051Z,21.4
2017-06-16T20:10:29.139Z,21.4
2017-06-16T20:11:37.224Z,21.4
2017-06-16T20:12:45.311Z,21.4
2017-06-16T20:13:53.398Z,21.4
2017-06-16T20:15:01.480Z,21.4
2017-06-16T20:16:09.568Z,21.3
2017-06-16T20:17:17.664Z,21.3
2017-06-16T20:18:25.750Z,21.3
2017-06-16T20:19:33.844Z,21.3
2017-06-16T20:20:41.922Z,21.3
2017-06-16T20:21:50.007Z,21.3
2017-06-16T20:22:58.094Z,21.2
2017-06-16T20:24:06.178Z,21.2
2017-06-16T20:25:14.266Z,21.2
2017-06-16T20:26:22.353Z,21.3
2017-06-16T20:27:30.439Z,21.2
2017-06-16T20:28:38.529Z,21.2
2017-06-16T20:29:46.611Z,21.1
2017-06-16T20:30:54.699Z,21.2
2017-06-16T20:32:02.806Z,21.1
2017-06-16T20:33:10.864Z,21.2
2017-06-16T20:34:18.950Z,21.0
2017-06-16T20:35:27.040Z,21.1
2017-06-16T20:36:35.134Z,21.1
2017-06-16T20:37:43.210Z,21.1
2017-06-16T20:38:51.298Z,21.1
2017-06-16T20:39:59.382Z,21.0
2017-06-16T20:41:07.477Z,21.1
2017-06-16T20:42:15.559Z,21.1
2017-06-16T20:43:23.647Z,21.0
2017-06-16T20:44:31.734Z,21.0
2017-06-16T20:45:39.819Z,20.9
2017-06-16T20:46:47.905Z,20.9
2017-06-16T20:47:55.994Z,20.9
2017-06-16T20:49:04.078Z,20.9
2017-06-16T20:50:12.163Z,20.9
2017-06-16T20:51:20.249Z,20.9
2017-06-16T20:52:28.337Z,20.8
2017-06-16T20:53:36.420Z,20.8
2017-06-16T20:54:44.508Z,20.8
2017-06-16T20:55:52.592Z,20.8
2017-06-16T20:57:00.678Z,20.8
2017-06-16T20:58:08.770Z,20.9
2017-06-16T20:59:16.853Z,20.6
2017-06-16T21:00:24.937Z,20.7
2017-06-16T21:01:33.023Z,20.7
2017-06-16T21:02:41.110Z,20.6
2017-06-16T21:03:49.196Z,20.7
2017-06-16T21:04:57.279Z,20.6
2017-06-16T21:06:05.365Z,20.5
2017-06-16T21:07:13.454Z,20.5
2017-06-16T21:08:21.547Z,20.5
2017-06-16T21:09:29.622Z,20.5
2017-06-16T21:10:37.706Z,20.5
2017-06-16T21:11:45.791Z,20.4
2017-06-16T21:12:53.878Z,20.5
2017-06-16T21:14:01.965Z,20.4
2017-06-16T21:15:10.050Z,20.5
2017-06-16T21:16:18.137Z,20.5
2017-06-16T21:17:26.221Z,20.5
2017-06-16T21:18:34.307Z,20.4
2017-06-16T21:19:42.390Z,20.5
2017-06-16T21:20:50.474Z,20.5
2017-06-16T21:21:58.561Z,20.5
2017-06-16T21:23:06.647Z,20.3
2017-06-16T21:24:14.731Z,20.4
2017-06-16T21:25:22.820Z,20.4
2017-06-16T21:26:30.906Z,20.3
2017-06-16T21:27:38.998Z,20.3
2017-06-16T21:28:47.085Z,20.4
2017-06-16T21:29:55.170Z,20.3
2017-06-16T21:31:03.256Z,20.2
2017-06-16T21:32:11.341Z,20.1
2017-06-16T21:33:19.454Z,20.2
2017-06-16T21:34:27.532Z,20.2
2017-06-16T21:35:35.599Z,20.2
2017-06-16T21:36:43.682Z,20.2
2017-06-16T21:37:51.768Z,20.1
2017-06-16T21:38:59.860Z,20.0
2017-06-16T21:40:07.947Z,20.0
2017-06-16T21:41:16.034Z,20.0
2017-06-16T21:42:24.119Z,20.0
2017-06-16T21:43:32.203Z,20.0
2017-06-16T21:44:40.296Z,19.9
2017-06-16T21:45:48.373Z,19.9
2017-06-16T21:46:56.527Z,19.9
2017-06-16T21:48:04.543Z,19.9
2017-06-16T21:49:12.628Z,19.9
2017-06-16T21:50:20.719Z,20.0
2017-06-16T21:51:28.833Z,19.8
2017-06-16T21:52:36.888Z,19.7
2017-06-16T21:53:44.968Z,19.8
2017-06-16T21:54:53.051Z,19.9
